createdAt,value
2018-12-27T00:00:02.429Z,71.20
2018-12-27T00:02:29.772Z,69.50
2018-12-27T00:04:57.124Z,71.90
2018-12-27T00:07:24.570Z,71.80
2018-12-27T00:09:51.981Z,71.30
2018-12-27T00:12:19.417Z,70.20
2018-12-27T00:14:46.837Z,72.20
2018-12-27T00:17:14.475Z,70.70
2018-12-27T00:19:41.878Z,71.00
2018-12-27T00:22:09.210Z,71.50
2018-12-27T00:24:36.525Z,71.30
2018-12-27T00:27:03.862Z,70.60
2018-12-27T00:29:31.179Z,70.30
2018-12-27T00:31:58.928Z,70.30
2018-12-27T00:34:26.286Z,70.90
2018-12-27T00:36:53.703Z,70.40
2018-12-27T00:39:21.399Z,69.70
2018-12-27T00:41:48.685Z,71.00
2018-12-27T00:44:16.097Z,70.60
2018-12-27T00:46:43.850Z,70.60
2018-12-27T00:49:11.290Z,70.20
2018-12-27T00:51:38.679Z,70.90
2018-12-27T00:54:05.967Z,70.60
2018-12-27T00:56:33.277Z,70.50
2018-12-27T00:59:00.559Z,70.00
2018-12-27T01:01:27.967Z,69.70
2018-12-27T01:03:55.291Z,70.00
2018-12-27T01:06:22.746Z,71.00
2018-12-27T01:08:50.158Z,69.80
2018-12-27T01:11:17.521Z,69.80
2018-12-27T01:13:44.862Z,70.70
2018-12-27T01:16:12.178Z,72.60
2018-12-27T01:18:39.585Z,70.80
2018-12-27T01:21:06.955Z,73.00
2018-12-27T01:23:34.336Z,72.00
2018-12-27T01:26:01.655Z,71.30
2018-12-27T01:28:29.055Z,71.50
2018-12-27T01:30:57.131Z,71.80
2018-12-27T01:33:24.552Z,71.50
2018-12-27T01:35:51.944Z,71.10
2018-12-27T01:38:19.266Z,70.70
2018-12-27T01:40:46.634Z,71.40
2018-12-27T01:43:14.017Z,71.70
2018-12-27T01:45:41.723Z,71.30
2018-12-27T01:48:09.134Z,71.30
2018-12-27T01:50:36.845Z,71.50
2018-12-27T01:53:04.204Z,71.20
2018-12-27T01:55:31.581Z,69.90
2018-12-27T01:57:58.975Z,71.60
2018-12-27T02:00:26.390Z,71.30
2018-12-27T02:02:53.783Z,69.20
2018-12-27T02:05:21.096Z,70.70
2018-12-27T02:07:48.490Z,71.30
2018-12-27T02:10:15.924Z,70.50
2018-12-27T02:12:43.677Z,70.70
2018-12-27T02:15:10.990Z,69.70
2018-12-27T02:17:38.290Z,70.20
2018-12-27T02:20:05.586Z,70.00
2018-12-27T02:22:32.996Z,69.80
2018-12-27T02:25:00.399Z,70.50
2018-12-27T02:27:27.778Z,71.10
2018-12-27T02:29:55.178Z,70.80
2018-12-27T02:32:22.444Z,71.60
2018-12-27T02:34:49.827Z,70.50
2018-12-27T02:37:17.132Z,70.00
2018-12-27T02:39:44.524Z,70.20
2018-12-27T02:42:11.889Z,71.70
2018-12-27T02:44:39.172Z,69.70
2018-12-27T02:47:06.461Z,70.90
2018-12-27T02:49:33.828Z,70.20
2018-12-27T02:52:01.130Z,70.50
2018-12-27T02:54:28.533Z,70.50
2018-12-27T02:56:55.847Z,69.20
2018-12-27T02:59:23.249Z,71.20
2018-12-27T03:01:50.643Z,70.00
2018-12-27T03:04:18.061Z,71.50
2018-12-27T03:06:45.392Z,70.30
2018-12-27T03:09:12.643Z,72.70
2018-12-27T03:11:39.910Z,72.60
2018-12-27T03:14:07.224Z,71.70
2018-12-27T03:16:34.602Z,71.10
2018-12-27T03:19:01.993Z,70.90
2018-12-27T03:21:29.295Z,70.30
2018-12-27T03:23:56.988Z,71.10
2018-12-27T03:26:24.368Z,71.40
2018-12-27T03:28:51.747Z,71.50
2018-12-27T03:31:19.161Z,70.70
2018-12-27T03:33:52.626Z,69.90
2018-12-27T03:36:15.789Z,71.00
2018-12-27T03:38:43.149Z,70.80
2018-12-27T03:41:10.438Z,69.40
2018-12-27T03:43:37.731Z,70.00
2018-12-27T03:46:05.014Z,71.00
2018-12-27T03:48:32.669Z,71.60
2018-12-27T03:51:00.046Z,71.20
2018-12-27T03:53:27.699Z,70.50
2018-12-27T03:55:55.068Z,70.40
2018-12-27T03:58:22.345Z,70.00
2018-12-27T04:00:49.645Z,68.90
2018-12-27T04:03:16.932Z,70.90
2018-12-27T04:05:44.244Z,70.90
2018-12-27T04:08:11.634Z,70.00
2018-12-27T04:10:39.053Z,71.10
2018-12-27T04:13:06.441Z,69.40
2018-12-27T04:15:33.843Z,70.90
2018-12-27T04:18:01.195Z,69.50
2018-12-27T04:20:28.498Z,70.80
2018-12-27T04:22:55.806Z,71.00
2018-12-27T04:25:23.728Z,70.70
2018-12-27T04:27:51.045Z,70.40
2018-12-27T04:30:19.069Z,70.00
2018-12-27T04:32:46.394Z,70.60
2018-12-27T04:35:13.959Z,68.90
2018-12-27T04:37:41.224Z,70.60
2018-12-27T04:40:08.550Z,70.50
2018-12-27T04:42:36.676Z,70.10
2018-12-27T04:45:04.010Z,70.10
2018-12-27T04:47:31.309Z,69.70
2018-12-27T04:49:58.716Z,70.30
2018-12-27T04:52:25.992Z,69.70
2018-12-27T04:54:53.314Z,70.40
2018-12-27T04:57:20.704Z,69.00
2018-12-27T04:59:48.011Z,70.40
2018-12-27T05:02:15.378Z,70.30
2018-12-27T05:04:42.786Z,68.90
2018-12-27T05:07:10.072Z,71.30
2018-12-27T05:09:37.394Z,69.90
2018-12-27T05:12:05.097Z,70.70
2018-12-27T05:14:32.486Z,69.80
2018-12-27T05:16:59.689Z,70.40
2018-12-27T05:19:27.066Z,70.60
2018-12-27T05:21:54.447Z,70.20
2018-12-27T05:24:21.846Z,69.90
2018-12-27T05:26:49.131Z,68.60
2018-12-27T05:29:16.501Z,70.50
2018-12-27T05:31:43.858Z,70.30
2018-12-27T05:34:11.192Z,69.30
2018-12-27T05:36:38.568Z,71.00
2018-12-27T05:39:05.847Z,69.50
2018-12-27T05:41:33.529Z,71.00
2018-12-27T05:44:00.817Z,70.10
2018-12-27T05:46:28.224Z,69.90
2018-12-27T05:48:55.643Z,71.10
2018-12-27T05:51:22.933Z,70.20
2018-12-27T05:53:50.228Z,70.60
2018-12-27T05:56:17.629Z,70.00
2018-12-27T05:58:45.043Z,68.30
2018-12-27T06:01:12.412Z,70.10
2018-12-27T06:03:39.758Z,70.00
2018-12-27T06:06:07.150Z,69.20
2018-12-27T06:08:34.545Z,70.80
2018-12-27T06:11:01.968Z,70.70
2018-12-27T06:13:29.346Z,70.50
2018-12-27T06:15:56.774Z,69.70
2018-12-27T06:18:24.122Z,70.40
2018-12-27T06:20:51.410Z,70.00
2018-12-27T06:23:18.801Z,68.40
2018-12-27T06:25:46.088Z,69.50
2018-12-27T06:28:13.495Z,71.70
2018-12-27T06:30:40.894Z,71.20
2018-12-27T06:33:08.161Z,70.70
2018-12-27T06:35:35.459Z,70.60
2018-12-27T06:38:02.720Z,68.70
2018-12-27T06:40:30.001Z,69.50
2018-12-27T06:42:57.794Z,69.60
2018-12-27T06:45:25.091Z,70.10
2018-12-27T06:47:52.483Z,69.60
2018-12-27T06:50:19.790Z,68.70
2018-12-27T06:52:47.200Z,70.90
2018-12-27T06:55:14.544Z,70.50
2018-12-27T06:57:41.854Z,70.40
2018-12-27T07:00:09.234Z,70.00
2018-12-27T07:02:36.642Z,69.20
2018-12-27T07:05:04.058Z,70.70
2018-12-27T07:07:31.390Z,70.40
2018-12-27T07:09:58.759Z,69.40
2018-12-27T07:12:26.153Z,69.90
2018-12-27T07:14:53.831Z,70.40
2018-12-27T07:17:21.146Z,69.70
2018-12-27T07:19:48.564Z,69.50
2018-12-27T07:22:15.975Z,68.70
2018-12-27T07:24:43.358Z,68.40
2018-12-27T07:27:10.656Z,70.30
2018-12-27T07:29:38.033Z,70.00
2018-12-27T07:32:05.346Z,69.00
2018-12-27T07:34:32.675Z,71.30
2018-12-27T07:37:00.063Z,70.90
2018-12-27T07:39:27.457Z,69.00
2018-12-27T07:41:54.763Z,70.40
2018-12-27T07:44:22.074Z,70.40
2018-12-27T07:46:49.380Z,68.60
2018-12-27T07:49:16.773Z,71.40
2018-12-27T07:51:44.123Z,70.50
2018-12-27T07:54:11.515Z,71.20
2018-12-27T07:56:39.102Z,70.70
2018-12-27T07:59:06.549Z,70.00
2018-12-27T08:01:33.921Z,69.40
2018-12-27T08:04:01.237Z,70.40
2018-12-27T08:06:28.581Z,70.30
2018-12-27T08:08:56.389Z,68.30
2018-12-27T08:11:23.840Z,69.50
2018-12-27T08:13:51.199Z,69.40
2018-12-27T08:16:18.509Z,68.30
2018-12-27T08:18:45.915Z,69.40
2018-12-27T08:21:13.298Z,68.00
2018-12-27T08:23:40.687Z,67.70
2018-12-27T08:26:08.043Z,70.50
2018-12-27T08:28:35.481Z,69.50
2018-12-27T08:31:02.955Z,69.60
2018-12-27T08:33:30.600Z,69.30
2018-12-27T08:35:57.932Z,70.00
2018-12-27T08:38:25.332Z,68.00
2018-12-27T08:40:53.555Z,70.30
2018-12-27T08:43:20.911Z,69.40
2018-12-27T08:45:48.321Z,69.60
2018-12-27T08:48:15.637Z,70.10
2018-12-27T08:50:43.094Z,69.30
2018-12-27T08:53:10.564Z,69.20
2018-12-27T08:55:37.944Z,68.70
2018-12-27T08:58:05.243Z,69.30
2018-12-27T09:00:32.575Z,69.50
2018-12-27T09:02:59.858Z,70.00
2018-12-27T09:05:27.310Z,69.70
2018-12-27T09:07:54.711Z,69.00
2018-12-27T09:10:22.050Z,68.30
2018-12-27T09:12:49.440Z,69.60
2018-12-27T09:15:16.802Z,69.10
2018-12-27T09:17:44.211Z,68.80
2018-12-27T09:20:11.573Z,69.10
2018-12-27T09:22:38.979Z,69.80
2018-12-27T09:25:09.316Z,69.40
2018-12-27T09:27:36.771Z,69.30
2018-12-27T09:30:04.800Z,69.30
2018-12-27T09:32:32.525Z,69.00
2018-12-27T09:34:59.891Z,68.50
2018-12-27T09:37:27.350Z,69.40
2018-12-27T09:39:54.837Z,68.40
2018-12-27T09:42:22.280Z,68.90
2018-12-27T09:44:49.711Z,67.70
2018-12-27T09:47:17.127Z,68.90
2018-12-27T09:49:44.439Z,68.50
2018-12-27T09:52:11.780Z,68.00
2018-12-27T09:54:39.203Z,69.10
2018-12-27T09:57:06.937Z,68.10
2018-12-27T09:59:34.390Z,68.70
2018-12-27T10:02:01.957Z,68.80
2018-12-27T10:04:29.413Z,68.20
2018-12-27T10:06:56.984Z,68.10
2018-12-27T10:09:24.342Z,68.10
2018-12-27T10:11:51.691Z,68.40
2018-12-27T10:14:19.063Z,68.60
2018-12-27T10:16:46.469Z,69.70
2018-12-27T10:19:13.949Z,68.90
2018-12-27T10:21:41.388Z,67.80
2018-12-27T10:24:08.866Z,68.30
2018-12-27T10:26:36.631Z,68.60
2018-12-27T10:29:04.077Z,68.50
2018-12-27T10:31:31.487Z,68.10
2018-12-27T10:33:58.903Z,68.20
2018-12-27T10:36:26.352Z,68.10
2018-12-27T10:38:57.676Z,68.60
2018-12-27T10:41:25.048Z,67.90
2018-12-27T10:43:52.443Z,67.80
2018-12-27T10:46:19.896Z,68.10
2018-12-27T10:48:47.312Z,68.40
2018-12-27T10:51:14.754Z,68.30
2018-12-27T10:53:42.231Z,68.30
2018-12-27T10:56:09.693Z,68.50
2018-12-27T10:58:37.148Z,68.50
2018-12-27T11:01:04.546Z,69.30
2018-12-27T11:03:32.065Z,69.40
2018-12-27T11:05:59.467Z,69.30
2018-12-27T11:08:26.918Z,69.10
2018-12-27T11:10:54.218Z,68.80
2018-12-27T11:13:23.640Z,69.10
2018-12-27T11:15:50.917Z,68.60
2018-12-27T11:18:18.361Z,67.80
2018-12-27T11:20:46.056Z,67.80
2018-12-27T11:23:13.479Z,68.10
2018-12-27T11:25:40.952Z,68.00
2018-12-27T11:28:08.673Z,68.80
2018-12-27T11:30:36.255Z,68.90
2018-12-27T11:33:03.724Z,68.50
2018-12-27T11:35:31.234Z,67.60
2018-12-27T11:37:58.695Z,69.40
2018-12-27T11:40:26.173Z,68.50
2018-12-27T11:42:53.980Z,68.50
2018-12-27T11:45:21.682Z,67.40
2018-12-27T11:47:49.444Z,67.90
2018-12-27T11:50:17.117Z,69.00
2018-12-27T11:52:44.555Z,68.10
2018-12-27T11:55:11.953Z,68.40
2018-12-27T11:57:39.288Z,67.20
2018-12-27T12:00:10.414Z,67.20
2018-12-27T12:02:37.858Z,67.40
2018-12-27T12:05:05.582Z,67.40
2018-12-27T12:07:33.376Z,68.60
2018-12-27T12:10:00.933Z,68.80
2018-12-27T12:12:28.456Z,68.20
2018-12-27T12:14:56.278Z,68.20
2018-12-27T12:17:23.651Z,67.60
2018-12-27T12:19:51.060Z,67.70
2018-12-27T12:22:18.502Z,68.60
2018-12-27T12:24:45.872Z,67.60
2018-12-27T12:27:13.355Z,68.60
2018-12-27T12:29:40.784Z,68.40
2018-12-27T12:32:08.275Z,67.90
2018-12-27T12:34:35.998Z,67.60
2018-12-27T12:37:03.954Z,68.50
2018-12-27T12:39:31.733Z,68.70
2018-12-27T12:41:59.129Z,67.90
2018-12-27T12:44:26.502Z,67.70
2018-12-27T12:46:53.915Z,67.80
2018-12-27T12:49:21.238Z,68.20
2018-12-27T12:51:48.965Z,67.60
2018-12-27T12:54:16.374Z,69.00
2018-12-27T12:56:43.881Z,68.40
2018-12-27T12:59:11.323Z,68.30
2018-12-27T13:01:38.755Z,67.90
2018-12-27T13:04:06.082Z,68.00
2018-12-27T13:06:33.567Z,67.70
2018-12-27T13:09:01.017Z,66.50
2018-12-27T13:11:28.449Z,67.80
2018-12-27T13:13:55.894Z,68.10
2018-12-27T13:16:23.290Z,67.00
2018-12-27T13:18:50.598Z,68.10
2018-12-27T13:21:18.291Z,68.10
2018-12-27T13:23:45.604Z,68.30
2018-12-27T13:26:13.207Z,67.30
2018-12-27T13:28:41.663Z,68.80
2018-12-27T13:31:09.066Z,68.60
2018-12-27T13:33:36.730Z,68.30
2018-12-27T13:36:04.229Z,67.40
2018-12-27T13:38:31.959Z,68.30
2018-12-27T13:41:00.649Z,68.00
2018-12-27T13:43:28.182Z,67.40
2018-12-27T13:45:55.598Z,66.90
2018-12-27T13:48:22.996Z,68.10
2018-12-27T13:50:50.412Z,67.50
2018-12-27T13:53:17.991Z,68.60
2018-12-27T13:55:45.460Z,67.50
2018-12-27T13:58:14.466Z,67.90
2018-12-27T14:00:41.843Z,67.70
2018-12-27T14:03:09.286Z,67.50
2018-12-27T14:05:36.719Z,67.50
2018-12-27T14:08:04.199Z,68.70
2018-12-27T14:10:31.693Z,67.30
2018-12-27T14:12:59.727Z,67.70
2018-12-27T14:15:27.164Z,68.50
2018-12-27T14:17:54.600Z,69.50
2018-12-27T14:20:22.005Z,70.00
2018-12-27T14:22:49.350Z,68.60
2018-12-27T14:25:16.745Z,69.50
2018-12-27T14:27:44.158Z,68.70
2018-12-27T14:30:11.651Z,68.80
2018-12-27T14:32:41.970Z,68.50
2018-12-27T14:35:09.443Z,68.30
2018-12-27T14:37:36.967Z,68.30
2018-12-27T14:40:06.422Z,67.90
2018-12-27T14:42:33.890Z,68.70
2018-12-27T14:45:01.556Z,69.10
2018-12-27T14:47:29.014Z,68.50
2018-12-27T14:49:56.427Z,68.90
2018-12-27T14:52:24.086Z,68.30
2018-12-27T14:54:51.711Z,69.40
2018-12-27T14:57:19.155Z,68.60
2018-12-27T14:59:46.634Z,69.20
2018-12-27T15:02:14.038Z,68.70
2018-12-27T15:04:41.514Z,68.50
2018-12-27T15:07:08.899Z,68.60
2018-12-27T15:09:36.393Z,68.60
2018-12-27T15:12:03.794Z,69.50
2018-12-27T15:14:31.229Z,69.20
2018-12-27T15:16:58.640Z,68.90
2018-12-27T15:19:26.048Z,68.70
2018-12-27T15:21:53.476Z,68.70
2018-12-27T15:24:21.028Z,68.60
2018-12-27T15:26:48.480Z,69.70
2018-12-27T15:29:15.918Z,69.60
2018-12-27T15:31:43.583Z,69.10
2018-12-27T15:34:11.346Z,69.00
2018-12-27T15:36:38.749Z,69.50
2018-12-27T15:39:06.276Z,69.20
2018-12-27T15:41:33.767Z,69.20
2018-12-27T15:44:01.208Z,69.50
2018-12-27T15:46:28.647Z,69.60
2018-12-27T15:48:56.078Z,69.80
2018-12-27T15:51:23.499Z,69.70
2018-12-27T15:53:50.870Z,69.90
2018-12-27T15:56:18.385Z,69.80
2018-12-27T15:58:45.780Z,69.50
2018-12-27T16:01:15.273Z,69.50
2018-12-27T16:03:42.604Z,69.50
2018-12-27T16:06:10.034Z,69.30
2018-12-27T16:08:37.864Z,69.50
2018-12-27T16:11:05.334Z,69.60
2018-12-27T16:13:32.650Z,69.50
2018-12-27T16:16:00.094Z,69.60
2018-12-27T16:18:27.373Z,69.70
2018-12-27T16:20:54.761Z,69.70
2018-12-27T16:23:22.486Z,69.60
2018-12-27T16:25:50.234Z,69.40
2018-12-27T16:28:17.703Z,69.60
2018-12-27T16:30:45.103Z,69.60
2018-12-27T16:33:12.406Z,69.60
2018-12-27T16:35:39.723Z,69.60
2018-12-27T16:38:07.170Z,69.60
2018-12-27T16:40:34.859Z,69.60
2018-12-27T16:43:02.165Z,69.60
2018-12-27T16:45:29.906Z,69.60
2018-12-27T16:47:57.663Z,69.60
2018-12-27T16:50:25.086Z,69.70
2018-12-27T16:52:52.846Z,69.60
2018-12-27T16:55:20.187Z,69.70
2018-12-27T16:57:47.602Z,69.60
2018-12-27T17:00:15.101Z,69.70
2018-12-27T17:02:42.579Z,69.70
2018-12-27T17:05:09.967Z,69.60
2018-12-27T17:07:37.428Z,69.70
2018-12-27T17:10:05.259Z,69.50
2018-12-27T17:12:32.800Z,69.50
2018-12-27T17:15:00.523Z,69.60
2018-12-27T17:17:28.038Z,69.80
2018-12-27T17:19:55.409Z,69.80
2018-12-27T17:22:22.866Z,69.70
2018-12-27T17:24:50.286Z,69.60
2018-12-27T17:27:17.653Z,69.60
2018-12-27T17:29:45.102Z,69.60
2018-12-27T17:32:12.510Z,69.70
2018-12-27T17:34:39.964Z,69.60
2018-12-27T17:37:07.328Z,69.60
2018-12-27T17:39:35.176Z,69.60
2018-12-27T17:42:02.597Z,69.90
2018-12-27T17:44:29.967Z,69.80
2018-12-27T17:46:58.242Z,69.90
2018-12-27T17:49:25.601Z,69.80
2018-12-27T17:51:52.942Z,70.10
2018-12-27T17:54:20.374Z,69.90
2018-12-27T17:56:47.695Z,69.90
2018-12-27T17:59:15.072Z,70.00
2018-12-27T18:01:42.840Z,69.90
2018-12-27T18:04:10.168Z,69.70
2018-12-27T18:06:37.553Z,69.70
2018-12-27T18:09:06.536Z,69.90
2018-12-27T18:11:34.002Z,69.80
2018-12-27T18:14:01.499Z,70.00
2018-12-27T18:16:28.907Z,69.90
2018-12-27T18:18:56.289Z,69.80
2018-12-27T18:21:23.744Z,69.80
2018-12-27T18:23:51.198Z,69.80
2018-12-27T18:26:18.689Z,69.80
2018-12-27T18:28:46.175Z,69.80
2018-12-27T18:31:13.604Z,69.80
2018-12-27T18:33:41.038Z,69.70
2018-12-27T18:36:08.493Z,69.60
2018-12-27T18:38:35.984Z,69.50
2018-12-27T18:41:03.489Z,69.50
2018-12-27T18:43:30.965Z,69.50
2018-12-27T18:45:58.406Z,69.30
2018-12-27T18:48:26.142Z,69.20
2018-12-27T18:50:53.566Z,69.20
2018-12-27T18:53:21.029Z,69.20
2018-12-27T18:55:48.540Z,69.00
2018-12-27T18:58:15.982Z,69.00
2018-12-27T19:00:43.795Z,69.00
2018-12-27T19:03:11.270Z,68.80
2018-12-27T19:05:39.004Z,69.60
2018-12-27T19:08:06.477Z,69.70
2018-12-27T19:10:33.970Z,69.30
2018-12-27T19:13:07.183Z,69.40
2018-12-27T19:15:58.025Z,69.80
2018-12-27T19:18:40.628Z,70.50
2018-12-27T19:21:22.307Z,70.80
2018-12-27T19:23:49.731Z,71.20
2018-12-27T19:26:17.210Z,71.30
2018-12-27T19:28:44.613Z,71.40
2018-12-27T19:31:12.473Z,71.50
2018-12-27T19:33:39.988Z,71.20
2018-12-27T19:36:07.420Z,71.90
2018-12-27T19:38:34.891Z,71.80
2018-12-27T19:41:02.806Z,72.00
2018-12-27T19:43:30.264Z,72.20
2018-12-27T19:45:57.805Z,72.80
2018-12-27T19:48:25.295Z,73.60
2018-12-27T19:50:52.856Z,73.60
2018-12-27T19:53:20.615Z,73.30
2018-12-27T19:55:48.397Z,73.00
2018-12-27T19:58:15.874Z,73.30
2018-12-27T20:00:43.411Z,73.00
2018-12-27T20:03:10.836Z,72.90
2018-12-27T20:05:38.325Z,72.30
2018-12-27T20:08:06.281Z,72.30
2018-12-27T20:10:33.750Z,72.90
2018-12-27T20:13:01.452Z,72.50
2018-12-27T20:15:28.944Z,73.20
2018-12-27T20:17:56.447Z,73.70
2018-12-27T20:20:25.927Z,72.80
2018-12-27T20:22:53.733Z,72.40
2018-12-27T20:25:21.527Z,73.40
2018-12-27T20:27:49.437Z,73.20
2018-12-27T20:30:16.989Z,73.00
2018-12-27T20:32:44.525Z,72.90
2018-12-27T20:35:12.043Z,73.00
2018-12-27T20:37:39.583Z,73.40
2018-12-27T20:40:07.048Z,73.30
2018-12-27T20:42:34.534Z,73.00
2018-12-27T20:45:02.482Z,73.00
2018-12-27T20:47:30.004Z,73.00
2018-12-27T20:49:57.650Z,72.80
2018-12-27T20:52:27.308Z,72.60
2018-12-27T20:54:55.280Z,72.80
2018-12-27T20:57:23.081Z,72.60
2018-12-27T20:59:50.570Z,73.10
2018-12-27T21:02:18.424Z,72.70
2018-12-27T21:04:45.900Z,72.60
2018-12-27T21:07:13.399Z,72.90
2018-12-27T21:09:40.950Z,72.60
2018-12-27T21:12:08.791Z,73.50
2018-12-27T21:14:36.676Z,72.90
2018-12-27T21:17:04.239Z,72.60
2018-12-27T21:19:31.798Z,72.60
2018-12-27T21:21:59.444Z,72.80
2018-12-27T21:24:27.021Z,72.40
2018-12-27T21:26:54.543Z,72.70
2018-12-27T21:29:22.457Z,72.90
2018-12-27T21:31:49.959Z,73.40
2018-12-27T21:34:17.456Z,72.80
2018-12-27T21:36:44.961Z,73.60
2018-12-27T21:39:12.404Z,73.40
2018-12-27T21:41:40.366Z,73.30
2018-12-27T21:44:07.919Z,73.50
2018-12-27T21:46:35.458Z,73.20
2018-12-27T21:49:02.982Z,72.60
2018-12-27T21:51:30.480Z,73.10
2018-12-27T21:53:58.027Z,73.40
2018-12-27T21:56:25.563Z,73.40
2018-12-27T21:58:53.119Z,73.40
2018-12-27T22:01:20.633Z,73.40
2018-12-27T22:03:48.141Z,74.30
2018-12-27T22:06:15.772Z,74.40
2018-12-27T22:08:43.744Z,74.00
2018-12-27T22:11:11.989Z,73.60
2018-12-27T22:13:39.597Z,73.20
2018-12-27T22:16:07.092Z,73.80
2018-12-27T22:18:34.623Z,73.30
2018-12-27T22:21:02.178Z,73.60
2018-12-27T22:23:30.038Z,73.60
2018-12-27T22:25:58.124Z,73.40
2018-12-27T22:28:25.629Z,74.60
2018-12-27T22:30:53.213Z,74.00
2018-12-27T22:33:20.713Z,74.30
2018-12-27T22:35:48.854Z,74.20
2018-12-27T22:38:16.457Z,74.50
2018-12-27T22:40:43.958Z,74.40
2018-12-27T22:43:11.461Z,74.40
2018-12-27T22:45:39.038Z,74.30
2018-12-27T22:48:06.916Z,74.20
2018-12-27T22:50:34.396Z,74.30
2018-12-27T22:53:02.201Z,74.00
2018-12-27T22:55:29.614Z,74.00
2018-12-27T22:57:57.077Z,74.30
2018-12-27T23:00:40.417Z,74.10
2018-12-27T23:03:07.839Z,73.40
2018-12-27T23:05:35.357Z,73.30
2018-12-27T23:08:02.837Z,73.20
2018-12-27T23:10:30.215Z,73.30
2018-12-27T23:12:57.709Z,73.60
2018-12-27T23:15:25.182Z,73.40
2018-12-27T23:17:53.357Z,73.80
2018-12-27T23:20:21.067Z,73.50
2018-12-27T23:22:48.503Z,72.90
2018-12-27T23:25:16.003Z,73.10
2018-12-27T23:27:43.496Z,73.30
2018-12-27T23:30:10.955Z,73.40
2018-12-27T23:32:38.509Z,73.40
2018-12-27T23:35:06.047Z,74.00
2018-12-27T23:37:33.527Z,73.60
2018-12-27T23:40:01.003Z,73.10
2018-12-27T23:42:28.466Z,74.10
2018-12-27T23:44:55.878Z,73.40
2018-12-27T23:47:23.322Z,73.60
2018-12-27T23:49:50.772Z,74.40
2018-12-27T23:52:18.258Z,73.60
2018-12-27T23:54:45.680Z,73.10
2018-12-27T23:57:13.102Z,73.20
2018-12-27T23:59:40.414Z,72.80
